createdAt,value
2022-11-18T00:01:21.345Z,9.57
2022-11-18T00:03:49.816Z,9.33
2022-11-18T00:06:21.343Z,9.17
2022-11-18T00:08:48.867Z,8.63
2022-11-18T00:11:39.217Z,8.70
2022-11-18T00:14:21.482Z,9.73
2022-11-18T00:16:54.507Z,10.87
2022-11-18T00:19:28.955Z,10.90
2022-11-18T00:21:56.993Z,10.03
2022-11-18T00:24:24.606Z,10.17
2022-11-18T00:26:52.665Z,10.60
2022-11-18T00:29:21.182Z,10.67
2022-11-18T00:31:49.449Z,9.13
2022-11-18T00:34:18.793Z,11.47
2022-11-18T00:36:47.859Z,11.13
2022-11-18T00:39:19.177Z,8.80
2022-11-18T00:42:06.116Z,8.23
2022-11-18T00:44:33.760Z,8.20
2022-11-18T00:47:01.219Z,8.83
2022-11-18T00:49:29.029Z,10.73
2022-11-18T00:51:56.525Z,9.47
2022-11-18T00:54:24.023Z,9.67
2022-11-18T00:56:51.493Z,11.13
2022-11-18T00:59:19.148Z,10.87
2022-11-18T01:01:46.866Z,9.50
2022-11-18T01:04:14.568Z,10.40
2022-11-18T01:06:42.123Z,11.13
2022-11-18T01:09:09.565Z,10.23
2022-11-18T01:11:55.383Z,11.70
2022-11-18T01:14:25.632Z,10.00
2022-11-18T01:16:57.320Z,9.60
2022-11-18T01:19:25.779Z,9.60
2022-11-18T01:21:53.479Z,9.53
2022-11-18T01:24:20.889Z,9.40
2022-11-18T01:26:48.648Z,9.00
2022-11-18T01:29:16.231Z,8.77
2022-11-18T01:32:08.844Z,8.37
2022-11-18T01:34:31.411Z,8.13
2022-11-18T01:36:58.925Z,7.93
2022-11-18T01:39:26.662Z,8.57
2022-11-18T01:41:54.117Z,8.97
2022-11-18T01:45:05.297Z,8.90
2022-11-18T01:47:41.779Z,10.23
2022-11-18T01:50:10.479Z,8.47
2022-11-18T01:52:38.995Z,8.93
2022-11-18T01:55:14.607Z,8.40
2022-11-18T01:57:42.747Z,8.60
2022-11-18T02:00:11.487Z,8.80
2022-11-18T02:02:39.017Z,8.20
2022-11-18T02:05:10.932Z,8.87
2022-11-18T02:07:43.289Z,8.37
2022-11-18T02:10:23.367Z,8.10
2022-11-18T02:12:53.073Z,8.80
2022-11-18T02:15:59.154Z,9.73
2022-11-18T02:18:38.116Z,10.40
2022-11-18T02:22:04.061Z,10.40
2022-11-18T02:24:41.688Z,9.80
2022-11-18T02:27:28.776Z,9.97
2022-11-18T02:30:03.548Z,10.73
2022-11-18T02:32:49.372Z,10.60
2022-11-18T02:35:22.928Z,12.40
2022-11-18T02:38:00.510Z,12.17
2022-11-18T02:40:58.911Z,12.00
2022-11-18T02:43:43.968Z,11.97
2022-11-18T02:46:18.250Z,12.00
2022-11-18T02:48:50.133Z,11.77
2022-11-18T02:51:24.487Z,11.40
2022-11-18T02:53:55.433Z,12.27
2022-11-18T02:56:24.804Z,11.37
2022-11-18T02:58:52.297Z,12.27
2022-11-18T03:01:29.217Z,11.87
2022-11-18T03:03:57.409Z,11.53
2022-11-18T03:06:39.295Z,12.07
2022-11-18T03:09:34.767Z,11.93
2022-11-18T03:12:34.552Z,12.50
2022-11-18T03:15:22.262Z,11.87
2022-11-18T03:18:18.919Z,11.80
2022-11-18T03:20:59.459Z,12.90
2022-11-18T03:23:41.590Z,12.43
2022-11-18T03:26:15.404Z,12.40
2022-11-18T03:28:54.399Z,12.30
2022-11-18T03:31:39.775Z,11.83
2022-11-18T03:34:36.502Z,11.97
2022-11-18T03:37:10.737Z,12.90
2022-11-18T03:39:44.572Z,12.60
2022-11-18T03:42:43.671Z,12.10
2022-11-18T03:45:31.055Z,13.37
2022-11-18T03:48:10.282Z,13.63
2022-11-18T03:50:52.251Z,13.03
2022-11-18T03:53:23.164Z,13.00
2022-11-18T03:55:55.619Z,12.93
2022-11-18T03:58:47.154Z,13.90
2022-11-18T04:01:26.422Z,13.43
2022-11-18T04:03:54.755Z,13.90
2022-11-18T04:06:56.619Z,14.20
2022-11-18T04:09:30.816Z,13.17
2022-11-18T04:12:07.899Z,13.07
2022-11-18T04:14:41.811Z,14.33
2022-11-18T04:17:20.744Z,14.03
2022-11-18T04:19:48.541Z,14.57
2022-11-18T04:22:16.823Z,13.73
2022-11-18T04:24:44.243Z,13.73
2022-11-18T04:27:11.893Z,14.47
2022-11-18T04:29:39.391Z,14.47
2022-11-18T04:32:07.306Z,13.17
2022-11-18T04:34:34.730Z,13.57
2022-11-18T04:37:02.530Z,13.17
2022-11-18T04:39:29.987Z,13.50
2022-11-18T04:41:57.595Z,13.97
2022-11-18T04:44:33.711Z,13.17
2022-11-18T04:47:05.066Z,13.90
2022-11-18T04:49:34.158Z,13.83
2022-11-18T04:52:02.539Z,14.20
2022-11-18T04:54:30.128Z,12.07
2022-11-18T04:56:58.036Z,12.73
2022-11-18T04:59:28.594Z,11.87
2022-11-18T05:01:57.750Z,13.47
2022-11-18T05:04:28.532Z,14.40
2022-11-18T05:06:56.281Z,13.33
2022-11-18T05:09:28.673Z,13.63
2022-11-18T05:12:17.923Z,13.27
2022-11-18T05:14:49.570Z,12.73
2022-11-18T05:17:18.427Z,14.50
2022-11-18T05:19:45.930Z,12.70
2022-11-18T05:22:14.931Z,13.57
2022-11-18T05:24:42.320Z,12.30
2022-11-18T05:27:09.840Z,12.83
2022-11-18T05:29:37.240Z,12.73
2022-11-18T05:32:05.244Z,13.70
2022-11-18T05:34:32.787Z,14.73
2022-11-18T05:37:00.574Z,14.93
2022-11-18T05:39:27.989Z,18.87
2022-11-18T05:42:13.955Z,16.10
2022-11-18T05:44:41.400Z,15.00
2022-11-18T05:47:08.976Z,14.60
2022-11-18T05:49:36.347Z,16.77
2022-11-18T05:52:04.360Z,16.10
2022-11-18T05:54:32.641Z,16.43
2022-11-18T05:57:00.062Z,15.93
2022-11-18T05:59:28.021Z,16.17
2022-11-18T06:02:03.281Z,21.37
2022-11-18T06:05:06.514Z,16.43
2022-11-18T06:07:47.199Z,17.90
2022-11-18T06:10:23.125Z,18.30
2022-11-18T06:12:56.939Z,19.53
2022-11-18T06:15:35.811Z,19.60
2022-11-18T06:18:12.571Z,19.77
2022-11-18T06:20:41.895Z,20.83
2022-11-18T06:23:09.414Z,18.87
2022-11-18T06:25:41.034Z,19.17
2022-11-18T06:28:11.260Z,17.90
2022-11-18T06:30:39.469Z,17.37
2022-11-18T06:33:07.148Z,19.17
2022-11-18T06:35:35.031Z,19.60
2022-11-18T06:38:02.475Z,19.77
2022-11-18T06:40:34.425Z,18.30
2022-11-18T06:43:28.162Z,17.93
2022-11-18T06:46:18.554Z,17.80
2022-11-18T06:48:46.261Z,17.50
2022-11-18T06:51:14.014Z,17.17
2022-11-18T06:53:41.524Z,18.07
2022-11-18T06:56:15.190Z,18.97
2022-11-18T06:58:42.719Z,18.10
2022-11-18T07:01:24.003Z,17.13
2022-11-18T07:03:52.444Z,17.77
2022-11-18T07:06:24.008Z,16.33
2022-11-18T07:08:52.339Z,16.57
2022-11-18T07:11:25.957Z,17.27
2022-11-18T07:13:53.434Z,17.53
2022-11-18T07:16:23.854Z,18.53
2022-11-18T07:18:53.107Z,18.03
2022-11-18T07:21:24.587Z,17.43
2022-11-18T07:23:52.321Z,16.37
2022-11-18T07:26:19.913Z,15.40
2022-11-18T07:28:47.376Z,15.77
2022-11-18T07:31:18.472Z,16.50
2022-11-18T07:33:47.407Z,16.60
2022-11-18T07:36:17.987Z,15.97
2022-11-18T07:38:46.562Z,17.47
2022-11-18T07:41:26.969Z,18.30
2022-11-18T07:44:01.013Z,17.23
2022-11-18T07:46:38.601Z,17.07
2022-11-18T07:49:09.264Z,17.30
2022-11-18T07:51:40.363Z,18.23
2022-11-18T07:54:13.732Z,17.20
2022-11-18T07:56:41.289Z,18.60
2022-11-18T07:59:08.984Z,20.60
2022-11-18T08:01:37.009Z,18.70
2022-11-18T08:04:11.207Z,19.77
2022-11-18T08:06:39.649Z,19.20
2022-11-18T08:09:08.640Z,17.63
2022-11-18T08:11:36.798Z,21.57
2022-11-18T08:14:04.262Z,18.47
2022-11-18T08:16:31.724Z,17.67
2022-11-18T08:19:01.129Z,17.23
2022-11-18T08:21:28.634Z,17.27
2022-11-18T08:23:58.019Z,18.43
2022-11-18T08:26:27.324Z,19.60
2022-11-18T08:28:54.826Z,19.40
2022-11-18T08:31:25.959Z,19.90
2022-11-18T08:34:01.787Z,17.10
2022-11-18T08:36:33.003Z,19.57
2022-11-18T08:39:03.431Z,17.33
2022-11-18T08:41:43.407Z,18.20
2022-11-18T08:44:16.099Z,18.27
2022-11-18T08:46:47.586Z,18.83
2022-11-18T08:49:15.496Z,18.73
2022-11-18T08:51:43.318Z,18.70
2022-11-18T08:54:10.746Z,17.43
2022-11-18T08:56:38.480Z,16.93
2022-11-18T08:59:06.226Z,17.73
2022-11-18T09:01:33.664Z,18.00
2022-11-18T09:04:01.133Z,18.53
2022-11-18T09:06:28.604Z,17.33
2022-11-18T09:08:56.120Z,16.80
2022-11-18T09:11:26.259Z,12.73
2022-11-18T09:16:46.512Z,12.83
2022-11-18T09:22:05.282Z,12.47
2022-11-18T09:24:33.547Z,12.30
2022-11-18T09:27:05.702Z,12.83
2022-11-18T09:29:33.644Z,13.80
2022-11-18T09:32:02.645Z,13.27
2022-11-18T09:34:30.411Z,12.70
2022-11-18T09:36:58.007Z,13.17
2022-11-18T09:39:25.824Z,13.23
2022-11-18T09:42:12.898Z,12.77
2022-11-18T09:44:52.204Z,14.87
2022-11-18T09:47:29.875Z,15.00
2022-11-18T09:50:41.825Z,15.57
2022-11-18T09:53:20.843Z,16.67
2022-11-18T09:55:50.471Z,12.87
2022-11-18T09:58:33.047Z,12.73
2022-11-18T10:01:02.813Z,12.83
2022-11-18T10:03:33.234Z,12.47
2022-11-18T10:06:10.158Z,13.00
2022-11-18T10:09:22.496Z,14.70
2022-11-18T10:12:25.724Z,12.97
2022-11-18T10:15:23.777Z,13.07
2022-11-18T10:18:44.957Z,14.57
2022-11-18T10:21:38.815Z,15.63
2022-11-18T10:24:31.123Z,14.70
2022-11-18T10:27:00.441Z,16.67
2022-11-18T10:29:28.180Z,15.87
2022-11-18T10:32:12.703Z,14.97
2022-11-18T10:35:24.534Z,15.77
2022-11-18T10:38:10.633Z,14.43
2022-11-18T10:40:43.802Z,16.60
2022-11-18T10:43:13.637Z,14.80
2022-11-18T10:45:41.654Z,16.97
2022-11-18T10:48:17.727Z,15.63
2022-11-18T10:50:55.667Z,14.63
2022-11-18T10:53:37.623Z,18.73
2022-11-18T10:56:23.407Z,14.77
2022-11-18T10:58:52.888Z,14.53
2022-11-18T11:01:24.564Z,17.17
2022-11-18T11:04:05.155Z,17.20
2022-11-18T11:06:39.399Z,18.93
2022-11-18T11:09:14.713Z,17.63
2022-11-18T11:12:04.468Z,17.43
2022-11-18T11:14:51.568Z,17.17
2022-11-18T11:18:10.780Z,17.97
2022-11-18T11:20:39.097Z,16.10
2022-11-18T11:23:12.461Z,17.70
2022-11-18T11:29:05.447Z,18.83
2022-11-18T11:31:56.833Z,18.47
2022-11-18T11:34:49.110Z,19.97
2022-11-18T11:37:56.363Z,18.20
2022-11-18T11:40:51.285Z,17.97
2022-11-18T11:43:43.727Z,19.43
2022-11-18T11:46:35.553Z,20.23
2022-11-18T11:49:30.656Z,19.00
2022-11-18T11:52:12.354Z,20.03
2022-11-18T11:55:05.841Z,20.67
2022-11-18T11:58:24.939Z,20.40
2022-11-18T12:01:35.408Z,18.37
2022-11-18T12:04:30.444Z,18.23
2022-11-18T12:07:00.520Z,16.87
2022-11-18T12:09:34.078Z,16.80
2022-11-18T12:12:38.395Z,17.47
2022-11-18T12:15:17.751Z,16.33
2022-11-18T12:18:16.599Z,17.50
2022-11-18T12:20:52.505Z,17.17
2022-11-18T12:23:27.712Z,16.17
2022-11-18T12:26:09.339Z,16.23
2022-11-18T12:28:45.432Z,15.57
2022-11-18T12:31:18.927Z,15.53
2022-11-18T12:34:00.458Z,15.17
2022-11-18T12:36:33.651Z,13.40
2022-11-18T12:39:27.792Z,12.37
2022-11-18T12:42:14.329Z,12.20
2022-11-18T12:44:44.084Z,11.30
2022-11-18T12:47:14.178Z,11.80
2022-11-18T12:49:44.639Z,11.77
2022-11-18T12:52:30.011Z,10.73
2022-11-18T12:55:01.860Z,12.50
2022-11-18T12:57:35.133Z,10.17
2022-11-18T13:00:25.871Z,8.33
2022-11-18T13:02:56.953Z,9.13
2022-11-18T13:05:35.216Z,9.87
2022-11-18T13:08:13.352Z,9.33
2022-11-18T13:11:15.617Z,6.23
2022-11-18T13:13:43.663Z,7.00
2022-11-18T13:16:47.882Z,6.20
2022-11-18T13:19:25.825Z,6.57
2022-11-18T13:22:17.966Z,8.00
2022-11-18T13:24:52.960Z,6.50
2022-11-18T13:27:49.888Z,8.73
2022-11-18T13:30:18.222Z,8.43
2022-11-18T13:32:48.291Z,9.00
2022-11-18T13:35:27.454Z,9.50
2022-11-18T13:38:01.395Z,7.07
2022-11-18T13:40:39.688Z,6.23
2022-11-18T13:43:10.892Z,11.70
2022-11-18T13:45:40.329Z,7.97
2022-11-18T13:48:15.554Z,8.07
2022-11-18T13:50:54.130Z,7.00
2022-11-18T13:53:38.347Z,7.80
2022-11-18T13:56:20.774Z,8.37
2022-11-18T14:01:38.772Z,10.57
2022-11-18T14:04:22.730Z,11.20
2022-11-18T14:06:51.086Z,8.23
2022-11-18T14:09:27.853Z,9.43
2022-11-18T14:15:42.082Z,8.27
2022-11-18T14:18:47.646Z,11.47
2022-11-18T14:21:30.289Z,9.37
2022-11-18T14:23:58.535Z,34.17
2022-11-18T14:26:38.270Z,14.20
2022-11-18T14:29:23.359Z,11.13
2022-11-18T14:32:14.140Z,9.23
2022-11-18T14:34:42.173Z,10.17
2022-11-18T14:37:15.117Z,8.07
2022-11-18T14:39:42.808Z,7.80
2022-11-18T14:42:13.358Z,11.73
2022-11-18T14:44:40.759Z,11.50
2022-11-18T14:47:28.705Z,13.80
2022-11-18T14:49:56.402Z,14.07
2022-11-18T14:52:23.841Z,15.37
2022-11-18T14:54:52.293Z,15.63
2022-11-18T14:57:19.675Z,17.80
2022-11-18T14:59:47.353Z,19.50
2022-11-18T15:02:18.859Z,22.60
2022-11-18T15:04:47.087Z,18.67
2022-11-18T15:07:21.746Z,18.20
2022-11-18T15:09:51.049Z,17.27
2022-11-18T15:12:18.556Z,16.17
2022-11-18T15:14:45.927Z,14.50
2022-11-18T15:17:14.250Z,27.40
2022-11-18T15:19:41.866Z,24.83
2022-11-18T15:22:09.828Z,30.47
2022-11-18T15:24:37.394Z,41.00
2022-11-18T15:27:05.767Z,22.87
2022-11-18T15:29:33.355Z,9.03
2022-11-18T15:32:00.733Z,7.20
2022-11-18T15:34:28.234Z,7.40
2022-11-18T15:36:55.646Z,8.80
2022-11-18T15:39:23.073Z,11.07
2022-11-18T15:41:50.694Z,12.67
2022-11-18T15:44:18.542Z,8.50
2022-11-18T15:46:48.161Z,5.90
2022-11-18T15:49:17.781Z,10.97
2022-11-18T15:51:45.218Z,11.80
2022-11-18T15:54:13.502Z,9.83
2022-11-18T15:56:41.894Z,9.10
2022-11-18T15:59:16.903Z,26.30
2022-11-18T16:01:49.473Z,11.67
2022-11-18T16:04:19.398Z,7.90
2022-11-18T16:06:47.785Z,6.53
2022-11-18T16:09:17.477Z,8.13
2022-11-18T16:12:03.891Z,26.87
2022-11-18T16:14:31.388Z,20.03
2022-11-18T16:16:59.166Z,13.13
2022-11-18T16:19:28.881Z,10.10
2022-11-18T16:21:57.391Z,9.63
2022-11-18T16:24:28.816Z,9.43
2022-11-18T16:26:57.063Z,8.97
2022-11-18T16:29:25.241Z,11.07
2022-11-18T16:31:54.580Z,15.67
2022-11-18T16:34:28.302Z,10.37
2022-11-18T16:36:59.801Z,10.27
2022-11-18T16:39:28.932Z,7.43
2022-11-18T16:42:08.462Z,6.50
2022-11-18T16:44:37.741Z,7.00
2022-11-18T16:47:13.964Z,6.90
2022-11-18T16:49:43.191Z,6.73
2022-11-18T16:52:10.646Z,9.83
2022-11-18T16:54:44.210Z,9.97
2022-11-18T16:57:12.634Z,17.80
2022-11-18T16:59:40.134Z,32.90
2022-11-18T17:02:10.494Z,22.30
2022-11-18T17:04:38.812Z,38.97
2022-11-18T17:07:06.657Z,28.47
2022-11-18T17:09:34.156Z,21.60
2022-11-18T17:12:03.431Z,12.90
2022-11-18T17:14:31.289Z,8.30
2022-11-18T17:17:01.550Z,7.60
2022-11-18T17:19:28.938Z,7.77
2022-11-18T17:21:56.327Z,7.50
2022-11-18T17:24:24.656Z,7.50
2022-11-18T17:26:53.297Z,7.20
2022-11-18T17:29:21.210Z,7.67
2022-11-18T17:31:49.211Z,8.30
2022-11-18T17:34:17.670Z,8.33
2022-11-18T17:36:45.344Z,7.67
2022-11-18T17:39:13.633Z,8.03
2022-11-18T17:41:59.862Z,8.47
2022-11-18T17:44:28.699Z,8.37
2022-11-18T17:46:56.320Z,17.13
2022-11-18T17:49:23.936Z,18.07
2022-11-18T17:51:51.827Z,11.80
2022-11-18T17:54:20.770Z,12.47
2022-11-18T17:56:50.072Z,14.00
2022-11-18T17:59:17.903Z,13.00
2022-11-18T18:01:46.316Z,16.63
2022-11-18T18:04:21.582Z,24.13
2022-11-18T18:06:55.110Z,21.47
2022-11-18T18:09:30.585Z,20.70
2022-11-18T18:12:00.376Z,20.97
2022-11-18T18:14:27.913Z,17.67
2022-11-18T18:16:55.373Z,23.13
2022-11-18T18:19:24.151Z,34.00
2022-11-18T18:21:53.254Z,18.13
2022-11-18T18:24:21.424Z,32.87
2022-11-18T18:26:49.385Z,20.53
2022-11-18T18:29:16.842Z,23.77
2022-11-18T18:31:44.337Z,20.17
2022-11-18T18:34:11.980Z,10.13
2022-11-18T18:36:39.502Z,10.77
2022-11-18T18:39:06.904Z,11.53
2022-11-18T18:41:34.697Z,12.23
2022-11-18T18:44:02.357Z,11.83
2022-11-18T18:46:31.094Z,11.23
2022-11-18T18:49:06.922Z,9.73
2022-11-18T18:51:40.811Z,8.67
2022-11-18T18:54:12.067Z,8.77
2022-11-18T18:56:40.451Z,10.03
2022-11-18T18:59:08.919Z,9.40
2022-11-18T19:01:37.677Z,9.30
2022-11-18T19:04:07.568Z,9.33
2022-11-18T19:09:27.719Z,16.60
2022-11-18T19:12:13.901Z,13.23
2022-11-18T19:14:41.589Z,11.07
2022-11-18T19:17:12.058Z,13.77
2022-11-18T19:20:01.055Z,13.20
2022-11-18T19:22:33.977Z,11.07
2022-11-18T19:25:02.115Z,10.77
2022-11-18T19:27:30.156Z,13.70
2022-11-18T19:29:57.625Z,11.97
2022-11-18T19:32:25.246Z,12.37
2022-11-18T19:34:52.698Z,11.60
2022-11-18T19:37:20.113Z,11.70
2022-11-18T19:39:47.516Z,11.03
2022-11-18T19:42:15.038Z,11.33
2022-11-18T19:44:42.540Z,10.93
2022-11-18T19:47:10.129Z,10.57
2022-11-18T19:49:37.535Z,9.63
2022-11-18T19:52:04.946Z,10.63
2022-11-18T19:54:32.404Z,11.90
2022-11-18T19:57:00.198Z,11.20
2022-11-18T19:59:27.749Z,11.57
2022-11-18T20:01:55.178Z,11.97
2022-11-18T20:04:22.789Z,12.70
2022-11-18T20:06:50.442Z,17.70
2022-11-18T20:09:18.601Z,20.20
2022-11-18T20:11:46.245Z,17.07
2022-11-18T20:14:13.860Z,14.00
2022-11-18T20:16:41.464Z,15.37
2022-11-18T20:19:13.717Z,17.80
2022-11-18T20:21:43.478Z,16.73
2022-11-18T20:24:19.144Z,15.10
2022-11-18T20:26:46.839Z,14.53
2022-11-18T20:29:14.367Z,13.43
2022-11-18T20:31:41.985Z,15.00
2022-11-18T20:34:14.461Z,13.97
2022-11-18T20:36:42.199Z,14.33
2022-11-18T20:39:17.834Z,12.57
2022-11-18T20:42:04.759Z,14.10
2022-11-18T20:44:32.232Z,12.90
2022-11-18T20:46:59.715Z,12.50
2022-11-18T20:49:27.147Z,12.00
2022-11-18T20:51:54.540Z,14.50
2022-11-18T20:54:21.975Z,16.03
2022-11-18T20:56:49.350Z,17.90
2022-11-18T20:59:16.897Z,17.67
2022-11-18T21:01:44.651Z,24.10
2022-11-18T21:04:12.531Z,23.00
2022-11-18T21:06:40.004Z,18.17
2022-11-18T21:09:08.128Z,18.10
2022-11-18T21:11:37.023Z,17.30
2022-11-18T21:14:25.500Z,15.50
2022-11-18T21:16:55.746Z,14.73
2022-11-18T21:19:23.693Z,18.97
2022-11-18T21:21:54.085Z,12.23
2022-11-18T21:24:23.137Z,12.73
2022-11-18T21:26:54.750Z,11.00
2022-11-18T21:29:25.076Z,12.43
2022-11-18T21:31:53.420Z,11.70
2022-11-18T21:34:22.033Z,14.03
2022-11-18T21:36:54.368Z,10.43
2022-11-18T21:39:24.422Z,9.67
2022-11-18T21:41:56.201Z,8.47
2022-11-18T21:44:26.092Z,9.40
2022-11-18T21:46:53.850Z,11.03
2022-11-18T21:49:21.818Z,13.70
2022-11-18T21:51:49.693Z,13.63
2022-11-18T21:54:18.582Z,15.23
2022-11-18T21:56:46.150Z,14.67
2022-11-18T21:59:13.824Z,10.37
2022-11-18T22:01:41.354Z,13.73
2022-11-18T22:04:28.720Z,9.13
2022-11-18T22:06:56.179Z,9.30
2022-11-18T22:09:23.664Z,9.00
2022-11-18T22:11:51.082Z,8.50
2022-11-18T22:14:18.507Z,9.17
2022-11-18T22:16:45.974Z,10.13
2022-11-18T22:19:13.354Z,10.00
2022-11-18T22:21:40.766Z,9.67
2022-11-18T22:24:08.889Z,22.20
2022-11-18T22:26:36.279Z,10.37
2022-11-18T22:29:03.789Z,17.77
2022-11-18T22:31:31.316Z,12.30
2022-11-18T22:33:58.755Z,10.30
2022-11-18T22:36:27.710Z,11.40
2022-11-18T22:38:56.004Z,10.87
2022-11-18T22:41:46.460Z,12.00
2022-11-18T22:44:16.761Z,11.83
2022-11-18T22:46:45.813Z,12.63
2022-11-18T22:49:14.025Z,13.00
2022-11-18T22:51:41.974Z,12.37
2022-11-18T22:54:37.631Z,10.97
2022-11-18T22:56:57.674Z,10.63
2022-11-18T22:59:25.634Z,11.70
2022-11-18T23:01:53.587Z,10.83
2022-11-18T23:04:21.154Z,11.27
2022-11-18T23:06:49.891Z,12.00
2022-11-18T23:09:17.948Z,11.63
2022-11-18T23:12:04.469Z,12.40
2022-11-18T23:14:31.859Z,12.43
2022-11-18T23:17:00.860Z,11.53
2022-11-18T23:19:28.349Z,11.13
2022-11-18T23:21:56.199Z,12.57
2022-11-18T23:24:23.634Z,13.73
2022-11-18T23:26:51.059Z,13.00
2022-11-18T23:29:18.859Z,11.90
2022-11-18T23:31:46.734Z,12.00
2022-11-18T23:34:15.930Z,11.40
2022-11-18T23:36:43.648Z,10.87
2022-11-18T23:39:11.803Z,10.50
2022-11-18T23:41:40.046Z,10.57
2022-11-18T23:44:07.730Z,10.27
2022-11-18T23:46:35.543Z,9.73
2022-11-18T23:49:03.172Z,10.70
2022-11-18T23:51:30.614Z,10.23
2022-11-18T23:53:58.358Z,9.57
2022-11-18T23:56:27.542Z,9.83
2022-11-18T23:58:57.096Z,10.40
